Buoy 45509

sailwx.info

Track history (hours):
 
Tides and Currents Weather Stations Pressure Air Temp Water Temp Dewpoint Dewpoint Depression Visibility Wind Speed Wind Dir Waves Ship Positions

Drifting buoy 45509

Last reported at 2018-Apr-21 12:00 UTC. Time now 2018-Apr-21 15:40 UTC.
Position N 44°32' W 087°59'.

Barometer 1009.6 mb
Water temperature 0.2 ° C

Date/timePositionNaut miles runAvg speedWind from/ knotsBaromVisibWave heightAir tempDewpointWater temp
2018-Apr-21 12:00N 44°32' W 087°59'0 0.0 1009.6 0.2
2018-Apr-21 06:00N 44°32' W 087°59'0 0.0 1009.5 0.2
2018-Apr-21 00:05N 44°32' W 087°59'0 0.0 1008.7 0.4
2018-Apr-21 00:00N 44°32' W 087°59'0 0.0 1008.7 0.4
2018-Apr-20 18:05N 44°32' W 087°59'0 0.0 1011.0 0.5
2018-Apr-20 18:00N 44°32' W 087°59'0 0.0 1011.0 0.5
2018-Apr-20 12:05N 44°32' W 087°59'0 0.0 1010.8 0.6
2018-Apr-20 12:00N 44°32' W 087°59'0 0.0 1010.8 0.6
2018-Apr-20 06:05N 44°32' W 087°59'0 0.0 1008.8 0.1
2018-Apr-20 06:00N 44°32' W 087°59'0 0.0 1008.8 0.1
2018-Apr-20 00:05N 44°32' W 087°59'0 0.0 1007.1 1.4
2018-Apr-20 00:00N 44°32' W 087°59'0 0.0 1007.1 1.4
2018-Apr-19 18:00N 44°32' W 087°59'0 0.0 1006.1 0.2
2018-Apr-19 12:00N 44°32' W 087°59'0 0.0 1003.1 0.8
2018-Apr-19 06:00N 44°32' W 087°59'0 0.0 997.3 0.4
2018-Apr-19 00:05N 44°32' W 087°59'0 0.0 993.7 -0.0
2018-Apr-19 00:00N 44°32' W 087°59'0 0.0 993.7 -0.0
2018-Apr-18 18:00N 44°32' W 087°59'0 0.0 992.2 0.3
2018-Apr-18 12:05N 44°32' W 087°59'0 0.0 992.1 0.1
2018-Apr-18 12:00N 44°32' W 087°59'0 0.0 992.1 0.1
2018-Apr-18 06:00N 44°32' W 087°59'0 0.0 994.1 -0.1
2018-Apr-18 00:00N 44°32' W 087°59'0 0.0 991.6 0.1
2018-Apr-17 18:05N 44°32' W 087°59'0 0.0 989.8 -0.0
2018-Apr-17 18:00N 44°32' W 087°59'0 0.0 989.8 -0.0
2018-Apr-17 12:00N 44°32' W 087°59'0 0.0 988.7 0.1
2018-Apr-17 06:00N 44°32' W 087°59'0 0.0 988.4 -0.0
2018-Apr-17 00:00N 44°32' W 087°59'0 0.0 989.1 0.1
2018-Apr-16 18:05N 44°32' W 087°59'0 0.0 987.7 0.1
2018-Apr-16 18:00N 44°32' W 087°59'0 0.0 987.7 0.1
2018-Apr-16 12:05N 44°32' W 087°59'0 0.0 987.1 -0.0
2018-Apr-16 12:00N 44°32' W 087°59'0 0.0 987.1 -0.0
2018-Apr-16 06:05N 44°32' W 087°59'0 0.0 987.9 -0.0
2018-Apr-16 06:00N 44°32' W 087°59'0 0.0 987.9 -0.0
2018-Apr-16 00:07N 44°32' W 087°59'0 0.0 988.6 -0.0
2018-Apr-16 00:00N 44°32' W 087°59'0 0.0 988.6 -0.0
2018-Apr-15 18:05N 44°32' W 087°59'0 0.0 990.9 -0.1
2018-Apr-15 18:00N 44°32' W 087°59'0 0.0 990.9 -0.1
2018-Apr-15 12:00N 44°32' W 087°59'0 0.0 995.6 -0.0
2018-Apr-15 06:05N 44°32' W 087°59'0 0.0 999.2 -0.0
2018-Apr-15 06:00N 44°32' W 087°59'0 0.0 999.2 -0.0
2018-Apr-15 00:01N 44°32' W 087°59'0 0.0 999.2 -0.0
2018-Apr-15 00:00N 44°32' W 087°59'0 0.0 999.2 -0.0
2018-Apr-14 18:05N 44°32' W 087°59'0 0.0 1000.1 0.1
2018-Apr-14 18:00N 44°32' W 087°59'0 0.0 1000.1 0.1
2018-Apr-14 12:05N 44°32' W 087°59'0 0.0 997.8 -0.0
2018-Apr-14 12:00N 44°32' W 087°59'0 0.0 997.8 -0.0
2018-Apr-14 06:05N 44°32' W 087°59'0 0.0 997.6 0.4
2018-Apr-14 06:00N 44°32' W 087°59'0 0.0 997.6 0.4
2018-Apr-14 00:05N 44°32' W 087°59'0 0.0 994.1 1.0
2018-Apr-14 00:00N 44°32' W 087°59'0 0.0 994.1 1.0
2018-Apr-13 18:05N 44°32' W 087°59'0 0.0 990.2 2.0
2018-Apr-13 18:00N 44°32' W 087°59'0 0.0 990.2 2.0
2018-Apr-13 12:05N 44°32' W 087°59'0 0.0 990.3 2.8
2018-Apr-13 12:00N 44°32' W 087°59'0 0.0 990.3 2.8
2018-Apr-13 06:00N 44°32' W 087°59'0 0.0 990.1 4.7
2018-Apr-13 00:05N 44°32' W 087°59'0 0.0 987.7 6.9
2018-Apr-13 00:00N 44°32' W 087°59'0 0.0 987.7 6.9
2018-Apr-12 12:05N 44°32' W 087°59'0 0.0 980.7 6.5
2018-Apr-12 12:00N 44°32' W 087°59'0 0.0 980.7 6.5
2018-Apr-12 06:05N 44°32' W 087°59'0 0.0 988.2 9.3
2018-Apr-12 06:00N 44°32' W 087°59'0 0.0 988.2 9.3
2018-Apr-12 00:05N 44°32' W 087°59'0 0.0 991.8 12.1
2018-Apr-12 00:00N 44°32' W 087°59'0 0.0 991.8 12.1
2018-Apr-11 18:00N 44°32' W 087°59'0 0.1 993.1 10.0
2018-Apr-11 12:05N 44°32' W 087°59'0 0.0 991.8 1.6
2018-Apr-11 12:00N 44°32' W 087°59'   991.8 1.6
Track history (hours):
 
Tides and Currents Weather Stations Pressure Air Temp Water Temp Dewpoint Dewpoint Depression Visibility Wind Speed Wind Dir Waves Ship Positions

Drifting buoy 45509

Last reported at 2018-Apr-21 12:00 UTC. Time now 2018-Apr-21 15:40 UTC.
Position N 44°32' W 087°59'.

Barometer 1009.6 mb
Water temperature 0.2 ° C

Date/timePositionNaut miles runAvg speedWind from/ knotsBaromVisibWave heightAir tempDewpointWater temp
2018-Apr-21 12:00N 44°32' W 087°59'0 0.0 1009.6 0.2
2018-Apr-21 06:00N 44°32' W 087°59'0 0.0 1009.5 0.2
2018-Apr-21 00:05N 44°32' W 087°59'0 0.0 1008.7 0.4
2018-Apr-21 00:00N 44°32' W 087°59'0 0.0 1008.7 0.4
2018-Apr-20 18:05N 44°32' W 087°59'0 0.0 1011.0 0.5
2018-Apr-20 18:00N 44°32' W 087°59'0 0.0 1011.0 0.5
2018-Apr-20 12:05N 44°32' W 087°59'0 0.0 1010.8 0.6
2018-Apr-20 12:00N 44°32' W 087°59'0 0.0 1010.8 0.6
2018-Apr-20 06:05N 44°32' W 087°59'0 0.0 1008.8 0.1
2018-Apr-20 06:00N 44°32' W 087°59'0 0.0 1008.8 0.1
2018-Apr-20 00:05N 44°32' W 087°59'0 0.0 1007.1 1.4
2018-Apr-20 00:00N 44°32' W 087°59'0 0.0 1007.1 1.4
2018-Apr-19 18:00N 44°32' W 087°59'0 0.0 1006.1 0.2
2018-Apr-19 12:00N 44°32' W 087°59'0 0.0 1003.1 0.8
2018-Apr-19 06:00N 44°32' W 087°59'0 0.0 997.3 0.4
2018-Apr-19 00:05N 44°32' W 087°59'0 0.0 993.7 -0.0
2018-Apr-19 00:00N 44°32' W 087°59'0 0.0 993.7 -0.0
2018-Apr-18 18:00N 44°32' W 087°59'0 0.0 992.2 0.3
2018-Apr-18 12:05N 44°32' W 087°59'0 0.0 992.1 0.1
2018-Apr-18 12:00N 44°32' W 087°59'0 0.0 992.1 0.1
2018-Apr-18 06:00N 44°32' W 087°59'0 0.0 994.1 -0.1
2018-Apr-18 00:00N 44°32' W 087°59'0 0.0 991.6 0.1
2018-Apr-17 18:05N 44°32' W 087°59'0 0.0 989.8 -0.0
2018-Apr-17 18:00N 44°32' W 087°59'0 0.0 989.8 -0.0
2018-Apr-17 12:00N 44°32' W 087°59'0 0.0 988.7 0.1
2018-Apr-17 06:00N 44°32' W 087°59'0 0.0 988.4 -0.0
2018-Apr-17 00:00N 44°32' W 087°59'0 0.0 989.1 0.1
2018-Apr-16 18:05N 44°32' W 087°59'0 0.0 987.7 0.1
2018-Apr-16 18:00N 44°32' W 087°59'0 0.0 987.7 0.1
2018-Apr-16 12:05N 44°32' W 087°59'0 0.0 987.1 -0.0
2018-Apr-16 12:00N 44°32' W 087°59'0 0.0 987.1 -0.0
2018-Apr-16 06:05N 44°32' W 087°59'0 0.0 987.9 -0.0
2018-Apr-16 06:00N 44°32' W 087°59'0 0.0 987.9 -0.0
2018-Apr-16 00:07N 44°32' W 087°59'0 0.0 988.6 -0.0
2018-Apr-16 00:00N 44°32' W 087°59'0 0.0 988.6 -0.0
2018-Apr-15 18:05N 44°32' W 087°59'0 0.0 990.9 -0.1
2018-Apr-15 18:00N 44°32' W 087°59'0 0.0 990.9 -0.1
2018-Apr-15 12:00N 44°32' W 087°59'0 0.0 995.6 -0.0
2018-Apr-15 06:05N 44°32' W 087°59'0 0.0 999.2 -0.0
2018-Apr-15 06:00N 44°32' W 087°59'0 0.0 999.2 -0.0
2018-Apr-15 00:01N 44°32' W 087°59'0 0.0 999.2 -0.0
2018-Apr-15 00:00N 44°32' W 087°59'0 0.0 999.2 -0.0
2018-Apr-14 18:05N 44°32' W 087°59'0 0.0 1000.1 0.1
2018-Apr-14 18:00N 44°32' W 087°59'0 0.0 1000.1 0.1
2018-Apr-14 12:05N 44°32' W 087°59'0 0.0 997.8 -0.0
2018-Apr-14 12:00N 44°32' W 087°59'0 0.0 997.8 -0.0
2018-Apr-14 06:05N 44°32' W 087°59'0 0.0 997.6 0.4
2018-Apr-14 06:00N 44°32' W 087°59'0 0.0 997.6 0.4
2018-Apr-14 00:05N 44°32' W 087°59'0 0.0 994.1 1.0
2018-Apr-14 00:00N 44°32' W 087°59'0 0.0 994.1 1.0
2018-Apr-13 18:05N 44°32' W 087°59'0 0.0 990.2 2.0
2018-Apr-13 18:00N 44°32' W 087°59'0 0.0 990.2 2.0
2018-Apr-13 12:05N 44°32' W 087°59'0 0.0 990.3 2.8
2018-Apr-13 12:00N 44°32' W 087°59'0 0.0 990.3 2.8
2018-Apr-13 06:00N 44°32' W 087°59'0 0.0 990.1 4.7
2018-Apr-13 00:05N 44°32' W 087°59'0 0.0 987.7 6.9
2018-Apr-13 00:00N 44°32' W 087°59'0 0.0 987.7 6.9
2018-Apr-12 12:05N 44°32' W 087°59'0 0.0 980.7 6.5
2018-Apr-12 12:00N 44°32' W 087°59'0 0.0 980.7 6.5
2018-Apr-12 06:05N 44°32' W 087°59'0 0.0 988.2 9.3
2018-Apr-12 06:00N 44°32' W 087°59'0 0.0 988.2 9.3
2018-Apr-12 00:05N 44°32' W 087°59'0 0.0 991.8 12.1
2018-Apr-12 00:00N 44°32' W 087°59'0 0.0 991.8 12.1
2018-Apr-11 18:00N 44°32' W 087°59'0 0.1 993.1 10.0
2018-Apr-11 12:05N 44°32' W 087°59'0 0.0 991.8 1.6
2018-Apr-11 12:00N 44°32' W 087°59'   991.8 1.6

Dump ship's entire track history